sensor_id;sensor_type;location;lat;lon;timestamp;P1;durP1;ratioP1;P2;durP2;ratioP2
71790;SDS011;59638;52.126;5.434;2023-08-30T00:00:58;5.57;;;3.70;;
71790;SDS011;59638;52.126;5.434;2023-08-30T00:03:25;4.70;;;3.33;;
71790;SDS011;59638;52.126;5.434;2023-08-30T00:05:52;5.73;;;3.67;;
71790;SDS011;59638;52.126;5.434;2023-08-30T00:08:18;3.97;;;3.45;;
71790;SDS011;59638;52.126;5.434;2023-08-30T00:10:45;6.30;;;3.95;;
71790;SDS011;59638;52.126;5.434;2023-08-30T00:13:13;4.28;;;3.88;;
71790;SDS011;59638;52.126;5.434;2023-08-30T00:15:39;7.35;;;5.00;;
71790;SDS011;59638;52.126;5.434;2023-08-30T00:18:06;6.70;;;4.10;;
71790;SDS011;59638;52.126;5.434;2023-08-30T00:20:33;4.75;;;4.10;;
71790;SDS011;59638;52.126;5.434;2023-08-30T00:23:00;7.57;;;3.78;;
71790;SDS011;59638;52.126;5.434;2023-08-30T00:25:26;4.72;;;3.45;;
71790;SDS011;59638;52.126;5.434;2023-08-30T00:27:53;4.22;;;3.80;;
71790;SDS011;59638;52.126;5.434;2023-08-30T00:30:19;4.93;;;3.70;;
71790;SDS011;59638;52.126;5.434;2023-08-30T00:32:46;8.45;;;4.13;;
71790;SDS011;59638;52.126;5.434;2023-08-30T00:35:12;6.30;;;3.75;;
71790;SDS011;59638;52.126;5.434;2023-08-30T00:37:39;6.47;;;4.85;;
71790;SDS011;59638;52.126;5.434;2023-08-30T00:40:06;5.20;;;4.25;;
71790;SDS011;59638;52.126;5.434;2023-08-30T00:42:33;5.17;;;3.97;;
71790;SDS011;59638;52.126;5.434;2023-08-30T00:44:59;7.75;;;4.70;;
71790;SDS011;59638;52.126;5.434;2023-08-30T00:47:25;5.68;;;4.38;;
71790;SDS011;59638;52.126;5.434;2023-08-30T00:49:52;5.65;;;5.15;;
71790;SDS011;59638;52.126;5.434;2023-08-30T00:52:19;7.32;;;4.55;;
71790;SDS011;59638;52.126;5.434;2023-08-30T00:54:45;6.23;;;4.67;;
71790;SDS011;59638;52.126;5.434;2023-08-30T00:57:12;7.55;;;5.38;;
71790;SDS011;59638;52.126;5.434;2023-08-30T00:59:39;6.70;;;4.63;;
71790;SDS011;59638;52.126;5.434;2023-08-30T01:02:06;8.00;;;4.72;;
71790;SDS011;59638;52.126;5.434;2023-08-30T01:04:32;5.03;;;4.50;;
71790;SDS011;59638;52.126;5.434;2023-08-30T01:06:59;7.10;;;4.50;;
71790;SDS011;59638;52.126;5.434;2023-08-30T01:09:26;6.65;;;4.80;;
71790;SDS011;59638;52.126;5.434;2023-08-30T01:14:38;4.30;;;3.90;;
71790;SDS011;59638;52.126;5.434;2023-08-30T01:17:06;4.68;;;3.95;;
71790;SDS011;59638;52.126;5.434;2023-08-30T01:19:42;6.90;;;4.80;;
71790;SDS011;59638;52.126;5.434;2023-08-30T01:28:22;4.35;;;3.85;;
71790;SDS011;59638;52.126;5.434;2023-08-30T01:30:53;4.45;;;3.75;;
71790;SDS011;59638;52.126;5.434;2023-08-30T01:33:21;5.50;;;3.93;;
71790;SDS011;59638;52.126;5.434;2023-08-30T01:35:49;4.78;;;4.05;;
71790;SDS011;59638;52.126;5.434;2023-08-30T01:38:16;4.60;;;3.95;;
71790;SDS011;59638;52.126;5.434;2023-08-30T01:40:43;8.65;;;4.47;;
71790;SDS011;59638;52.126;5.434;2023-08-30T01:43:11;7.85;;;4.90;;
71790;SDS011;59638;52.126;5.434;2023-08-30T01:45:41;4.53;;;4.13;;
71790;SDS011;59638;52.126;5.434;2023-08-30T01:48:10;6.55;;;4.05;;
71790;SDS011;59638;52.126;5.434;2023-08-30T01:50:40;5.03;;;3.97;;
71790;SDS011;59638;52.126;5.434;2023-08-30T01:53:08;5.90;;;4.30;;
71790;SDS011;59638;52.126;5.434;2023-08-30T01:55:37;4.35;;;3.95;;
71790;SDS011;59638;52.126;5.434;2023-08-30T01:58:05;5.97;;;4.20;;
71790;SDS011;59638;52.126;5.434;2023-08-30T02:00:34;4.85;;;4.05;;
71790;SDS011;59638;52.126;5.434;2023-08-30T02:03:11;4.00;;;3.60;;
71790;SDS011;59638;52.126;5.434;2023-08-30T02:06:22;5.20;;;3.97;;
71790;SDS011;59638;52.126;5.434;2023-08-30T02:08:41;6.93;;;4.18;;
71790;SDS011;59638;52.126;5.434;2023-08-30T02:11:19;4.40;;;4.00;;
71790;SDS011;59638;52.126;5.434;2023-08-30T02:13:50;4.25;;;3.83;;
71790;SDS011;59638;52.126;5.434;2023-08-30T02:16:19;4.38;;;3.85;;
71790;SDS011;59638;52.126;5.434;2023-08-30T02:18:47;6.03;;;4.53;;
71790;SDS011;59638;52.126;5.434;2023-08-30T02:21:16;5.68;;;3.78;;
71790;SDS011;59638;52.126;5.434;2023-08-30T02:23:42;4.90;;;4.30;;
71790;SDS011;59638;52.126;5.434;2023-08-30T02:26:09;5.22;;;4.18;;
71790;SDS011;59638;52.126;5.434;2023-08-30T02:28:35;5.43;;;4.22;;
71790;SDS011;59638;52.126;5.434;2023-08-30T02:31:04;4.50;;;4.10;;
71790;SDS011;59638;52.126;5.434;2023-08-30T02:33:31;4.88;;;4.10;;
71790;SDS011;59638;52.126;5.434;2023-08-30T02:35:57;6.17;;;4.63;;
71790;SDS011;59638;52.126;5.434;2023-08-30T02:38:24;7.00;;;4.50;;
71790;SDS011;59638;52.126;5.434;2023-08-30T02:40:50;5.43;;;4.53;;
71790;SDS011;59638;52.126;5.434;2023-08-30T02:43:17;4.43;;;4.00;;
71790;SDS011;59638;52.126;5.434;2023-08-30T02:45:43;5.90;;;4.70;;
71790;SDS011;59638;52.126;5.434;2023-08-30T02:48:10;8.37;;;5.73;;
71790;SDS011;59638;52.126;5.434;2023-08-30T02:50:37;7.93;;;5.13;;
71790;SDS011;59638;52.126;5.434;2023-08-30T02:53:03;5.53;;;4.38;;
71790;SDS011;59638;52.126;5.434;2023-08-30T02:55:30;8.38;;;4.93;;
71790;SDS011;59638;52.126;5.434;2023-08-30T02:57:57;10.57;;;5.18;;
71790;SDS011;59638;52.126;5.434;2023-08-30T03:00:23;5.97;;;5.37;;
71790;SDS011;59638;52.126;5.434;2023-08-30T03:02:49;6.35;;;5.13;;
71790;SDS011;59638;52.126;5.434;2023-08-30T03:05:17;7.20;;;4.55;;
71790;SDS011;59638;52.126;5.434;2023-08-30T03:07:44;7.07;;;5.32;;
71790;SDS011;59638;52.126;5.434;2023-08-30T03:10:11;6.13;;;5.40;;
71790;SDS011;59638;52.126;5.434;2023-08-30T03:12:37;5.57;;;4.90;;
71790;SDS011;59638;52.126;5.434;2023-08-30T03:15:04;6.75;;;5.00;;
71790;SDS011;59638;52.126;5.434;2023-08-30T03:17:31;6.50;;;5.68;;
71790;SDS011;59638;52.126;5.434;2023-08-30T03:19:58;9.95;;;5.13;;
71790;SDS011;59638;52.126;5.434;2023-08-30T03:22:25;6.45;;;4.78;;
71790;SDS011;59638;52.126;5.434;2023-08-30T03:24:51;6.73;;;5.70;;
71790;SDS011;59638;52.126;5.434;2023-08-30T03:27:18;7.35;;;5.35;;
71790;SDS011;59638;52.126;5.434;2023-08-30T03:29:46;6.88;;;5.38;;
71790;SDS011;59638;52.126;5.434;2023-08-30T03:32:17;7.30;;;5.80;;
71790;SDS011;59638;52.126;5.434;2023-08-30T03:34:44;7.03;;;4.65;;
71790;SDS011;59638;52.126;5.434;2023-08-30T03:37:13;13.87;;;6.10;;
71790;SDS011;59638;52.126;5.434;2023-08-30T03:39:40;5.70;;;4.93;;
71790;SDS011;59638;52.126;5.434;2023-08-30T03:42:07;7.45;;;5.28;;
71790;SDS011;59638;52.126;5.434;2023-08-30T03:44:34;9.77;;;5.50;;
71790;SDS011;59638;52.126;5.434;2023-08-30T03:47:04;8.13;;;5.93;;
71790;SDS011;59638;52.126;5.434;2023-08-30T03:49:30;7.23;;;4.87;;
71790;SDS011;59638;52.126;5.434;2023-08-30T03:51:57;7.05;;;5.22;;
71790;SDS011;59638;52.126;5.434;2023-08-30T03:54:23;7.70;;;5.50;;
71790;SDS011;59638;52.126;5.434;2023-08-30T03:56:50;8.30;;;5.22;;
71790;SDS011;59638;52.126;5.434;2023-08-30T03:59:16;8.57;;;5.03;;
71790;SDS011;59638;52.126;5.434;2023-08-30T04:01:43;11.07;;;5.33;;
71790;SDS011;59638;52.126;5.434;2023-08-30T04:04:10;11.00;;;5.55;;
71790;SDS011;59638;52.126;5.434;2023-08-30T04:06:36;7.47;;;5.10;;
71790;SDS011;59638;52.126;5.434;2023-08-30T04:09:03;9.25;;;5.55;;
71790;SDS011;59638;52.126;5.434;2023-08-30T04:11:30;6.55;;;4.93;;
71790;SDS011;59638;52.126;5.434;2023-08-30T04:13:56;10.37;;;5.43;;
71790;SDS011;59638;52.126;5.434;2023-08-30T04:16:22;5.60;;;4.57;;
71790;SDS011;59638;52.126;5.434;2023-08-30T04:18:49;10.18;;;6.00;;
71790;SDS011;59638;52.126;5.434;2023-08-30T04:21:15;7.38;;;5.53;;
71790;SDS011;59638;52.126;5.434;2023-08-30T04:23:42;7.45;;;5.90;;
71790;SDS011;59638;52.126;5.434;2023-08-30T04:26:08;8.43;;;5.40;;
71790;SDS011;59638;52.126;5.434;2023-08-30T04:28:35;8.40;;;5.75;;
71790;SDS011;59638;52.126;5.434;2023-08-30T04:31:01;8.73;;;5.10;;
71790;SDS011;59638;52.126;5.434;2023-08-30T04:33:28;9.40;;;5.20;;
71790;SDS011;59638;52.126;5.434;2023-08-30T04:35:54;9.15;;;5.28;;
71790;SDS011;59638;52.126;5.434;2023-08-30T04:38:21;6.50;;;5.13;;
71790;SDS011;59638;52.126;5.434;2023-08-30T04:40:48;8.00;;;4.68;;
71790;SDS011;59638;52.126;5.434;2023-08-30T04:43:14;7.05;;;5.55;;
71790;SDS011;59638;52.126;5.434;2023-08-30T04:45:41;7.85;;;4.65;;
71790;SDS011;59638;52.126;5.434;2023-08-30T04:48:10;7.95;;;5.45;;
71790;SDS011;59638;52.126;5.434;2023-08-30T04:50:37;8.13;;;5.03;;
71790;SDS011;59638;52.126;5.434;2023-08-30T04:53:04;7.47;;;4.53;;
71790;SDS011;59638;52.126;5.434;2023-08-30T04:55:30;7.05;;;4.82;;
71790;SDS011;59638;52.126;5.434;2023-08-30T04:57:57;5.90;;;4.50;;
71790;SDS011;59638;52.126;5.434;2023-08-30T05:00:23;6.40;;;4.43;;
71790;SDS011;59638;52.126;5.434;2023-08-30T05:02:50;9.03;;;4.50;;
71790;SDS011;59638;52.126;5.434;2023-08-30T05:05:17;8.13;;;4.70;;
71790;SDS011;59638;52.126;5.434;2023-08-30T05:07:43;6.43;;;4.82;;
71790;SDS011;59638;52.126;5.434;2023-08-30T05:10:10;6.57;;;5.03;;
71790;SDS011;59638;52.126;5.434;2023-08-30T05:12:36;6.95;;;4.97;;
71790;SDS011;59638;52.126;5.434;2023-08-30T05:15:03;10.67;;;5.13;;
71790;SDS011;59638;52.126;5.434;2023-08-30T05:17:32;9.40;;;5.22;;
71790;SDS011;59638;52.126;5.434;2023-08-30T05:19:59;7.07;;;4.75;;
71790;SDS011;59638;52.126;5.434;2023-08-30T05:22:26;7.22;;;4.65;;
71790;SDS011;59638;52.126;5.434;2023-08-30T05:24:52;6.82;;;4.53;;
71790;SDS011;59638;52.126;5.434;2023-08-30T05:27:19;10.43;;;5.47;;
71790;SDS011;59638;52.126;5.434;2023-08-30T05:29:45;8.45;;;5.68;;
71790;SDS011;59638;52.126;5.434;2023-08-30T05:32:11;13.80;;;5.63;;
71790;SDS011;59638;52.126;5.434;2023-08-30T05:34:38;6.88;;;5.57;;
71790;SDS011;59638;52.126;5.434;2023-08-30T05:37:04;11.73;;;6.18;;
71790;SDS011;59638;52.126;5.434;2023-08-30T05:39:31;8.03;;;5.73;;
71790;SDS011;59638;52.126;5.434;2023-08-30T05:41:57;8.25;;;5.97;;
71790;SDS011;59638;52.126;5.434;2023-08-30T05:44:24;12.70;;;6.18;;
71790;SDS011;59638;52.126;5.434;2023-08-30T05:46:50;8.18;;;5.85;;
71790;SDS011;59638;52.126;5.434;2023-08-30T05:49:17;8.45;;;5.68;;
71790;SDS011;59638;52.126;5.434;2023-08-30T05:51:43;7.47;;;5.73;;
71790;SDS011;59638;52.126;5.434;2023-08-30T05:54:09;9.50;;;6.10;;
71790;SDS011;59638;52.126;5.434;2023-08-30T05:56:36;9.50;;;5.82;;
71790;SDS011;59638;52.126;5.434;2023-08-30T05:59:02;8.35;;;5.15;;
71790;SDS011;59638;52.126;5.434;2023-08-30T06:01:29;9.25;;;6.15;;
71790;SDS011;59638;52.126;5.434;2023-08-30T06:03:56;9.70;;;6.10;;
71790;SDS011;59638;52.126;5.434;2023-08-30T06:06:22;12.80;;;5.55;;
71790;SDS011;59638;52.126;5.434;2023-08-30T06:08:49;5.63;;;4.53;;
71790;SDS011;59638;52.126;5.434;2023-08-30T06:11:15;7.07;;;4.75;;
71790;SDS011;59638;52.126;5.434;2023-08-30T06:13:42;6.18;;;5.38;;
71790;SDS011;59638;52.126;5.434;2023-08-30T06:16:08;10.87;;;5.83;;
71790;SDS011;59638;52.126;5.434;2023-08-30T06:18:35;7.60;;;5.93;;
71790;SDS011;59638;52.126;5.434;2023-08-30T06:21:03;7.47;;;5.20;;
71790;SDS011;59638;52.126;5.434;2023-08-30T06:23:30;6.57;;;5.47;;
71790;SDS011;59638;52.126;5.434;2023-08-30T06:25:57;7.70;;;4.80;;
71790;SDS011;59638;52.126;5.434;2023-08-30T06:28:23;7.37;;;4.50;;
71790;SDS011;59638;52.126;5.434;2023-08-30T06:30:50;7.57;;;5.28;;
71790;SDS011;59638;52.126;5.434;2023-08-30T06:33:17;7.25;;;4.88;;
71790;SDS011;59638;52.126;5.434;2023-08-30T06:35:43;9.10;;;5.22;;
71790;SDS011;59638;52.126;5.434;2023-08-30T06:38:10;5.97;;;5.40;;
71790;SDS011;59638;52.126;5.434;2023-08-30T06:40:42;9.40;;;5.73;;
71790;SDS011;59638;52.126;5.434;2023-08-30T06:43:09;6.28;;;5.32;;
71790;SDS011;59638;52.126;5.434;2023-08-30T06:45:36;9.65;;;5.93;;
71790;SDS011;59638;52.126;5.434;2023-08-30T06:48:05;9.43;;;5.43;;
71790;SDS011;59638;52.126;5.434;2023-08-30T06:50:33;8.52;;;5.82;;
71790;SDS011;59638;52.126;5.434;2023-08-30T06:53:01;9.57;;;5.50;;
71790;SDS011;59638;52.126;5.434;2023-08-30T06:55:28;6.82;;;5.38;;
71790;SDS011;59638;52.126;5.434;2023-08-30T06:57:55;12.70;;;6.65;;
71790;SDS011;59638;52.126;5.434;2023-08-30T07:00:21;7.05;;;6.10;;
71790;SDS011;59638;52.126;5.434;2023-08-30T07:02:48;8.32;;;6.43;;
71790;SDS011;59638;52.126;5.434;2023-08-30T07:05:15;6.47;;;5.87;;
71790;SDS011;59638;52.126;5.434;2023-08-30T07:07:41;9.63;;;5.82;;
71790;SDS011;59638;52.126;5.434;2023-08-30T07:10:08;10.65;;;6.32;;
71790;SDS011;59638;52.126;5.434;2023-08-30T07:12:35;7.15;;;5.95;;
71790;SDS011;59638;52.126;5.434;2023-08-30T07:15:02;8.60;;;5.45;;
71790;SDS011;59638;52.126;5.434;2023-08-30T07:17:29;15.53;;;6.97;;
71790;SDS011;59638;52.126;5.434;2023-08-30T07:20:16;15.52;;;6.55;;
71790;SDS011;59638;52.126;5.434;2023-08-30T07:22:43;8.88;;;5.80;;
71790;SDS011;59638;52.126;5.434;2023-08-30T07:25:09;9.23;;;5.78;;
71790;SDS011;59638;52.126;5.434;2023-08-30T07:27:36;8.38;;;5.22;;
71790;SDS011;59638;52.126;5.434;2023-08-30T07:30:03;6.27;;;5.17;;
71790;SDS011;59638;52.126;5.434;2023-08-30T07:32:30;8.50;;;6.35;;
71790;SDS011;59638;52.126;5.434;2023-08-30T07:34:56;6.47;;;5.38;;
71790;SDS011;59638;52.126;5.434;2023-08-30T07:37:23;6.15;;;5.18;;
71790;SDS011;59638;52.126;5.434;2023-08-30T07:39:50;11.25;;;5.82;;
71790;SDS011;59638;52.126;5.434;2023-08-30T07:42:18;7.83;;;5.10;;
71790;SDS011;59638;52.126;5.434;2023-08-30T07:44:44;8.13;;;5.28;;
71790;SDS011;59638;52.126;5.434;2023-08-30T07:47:11;9.43;;;5.75;;
71790;SDS011;59638;52.126;5.434;2023-08-30T07:49:37;13.60;;;5.70;;
71790;SDS011;59638;52.126;5.434;2023-08-30T07:52:04;10.75;;;5.75;;
71790;SDS011;59638;52.126;5.434;2023-08-30T07:54:31;8.70;;;5.57;;
71790;SDS011;59638;52.126;5.434;2023-08-30T07:56:57;10.27;;;5.65;;
71790;SDS011;59638;52.126;5.434;2023-08-30T07:59:24;5.93;;;4.38;;
71790;SDS011;59638;52.126;5.434;2023-08-30T08:01:50;7.75;;;5.30;;
71790;SDS011;59638;52.126;5.434;2023-08-30T08:04:17;10.38;;;4.85;;
71790;SDS011;59638;52.126;5.434;2023-08-30T08:06:44;9.23;;;5.57;;
71790;SDS011;59638;52.126;5.434;2023-08-30T08:09:21;7.50;;;5.25;;
71790;SDS011;59638;52.126;5.434;2023-08-30T08:11:48;5.38;;;4.85;;
71790;SDS011;59638;52.126;5.434;2023-08-30T08:14:15;5.28;;;4.53;;
71790;SDS011;59638;52.126;5.434;2023-08-30T08:16:42;7.43;;;4.68;;
71790;SDS011;59638;52.126;5.434;2023-08-30T08:19:08;6.03;;;4.30;;
71790;SDS011;59638;52.126;5.434;2023-08-30T08:21:35;4.85;;;4.32;;
71790;SDS011;59638;52.126;5.434;2023-08-30T08:24:01;8.73;;;4.93;;
71790;SDS011;59638;52.126;5.434;2023-08-30T08:26:28;9.65;;;4.50;;
71790;SDS011;59638;52.126;5.434;2023-08-30T08:28:54;7.35;;;4.05;;
71790;SDS011;59638;52.126;5.434;2023-08-30T08:31:21;5.57;;;4.57;;
71790;SDS011;59638;52.126;5.434;2023-08-30T08:34:04;6.07;;;4.53;;
71790;SDS011;59638;52.126;5.434;2023-08-30T08:36:32;3.72;;;3.20;;
71790;SDS011;59638;52.126;5.434;2023-08-30T08:38:59;4.13;;;3.60;;
71790;SDS011;59638;52.126;5.434;2023-08-30T08:41:27;6.07;;;3.60;;
71790;SDS011;59638;52.126;5.434;2023-08-30T08:43:59;4.37;;;3.63;;
71790;SDS011;59638;52.126;5.434;2023-08-30T08:46:26;4.90;;;3.90;;
71790;SDS011;59638;52.126;5.434;2023-08-30T08:48:56;3.53;;;2.88;;
71790;SDS011;59638;52.126;5.434;2023-08-30T08:51:23;3.75;;;3.10;;
71790;SDS011;59638;52.126;5.434;2023-08-30T08:53:50;4.82;;;2.97;;
71790;SDS011;59638;52.126;5.434;2023-08-30T08:56:17;4.57;;;3.00;;
71790;SDS011;59638;52.126;5.434;2023-08-30T08:58:45;6.43;;;3.88;;
71790;SDS011;59638;52.126;5.434;2023-08-30T09:01:13;4.80;;;2.95;;
71790;SDS011;59638;52.126;5.434;2023-08-30T09:03:59;5.28;;;3.35;;
71790;SDS011;59638;52.126;5.434;2023-08-30T09:06:27;7.38;;;3.53;;
71790;SDS011;59638;52.126;5.434;2023-08-30T09:08:55;3.40;;;3.10;;
71790;SDS011;59638;52.126;5.434;2023-08-30T09:11:21;3.58;;;2.53;;
71790;SDS011;59638;52.126;5.434;2023-08-30T09:14:01;3.88;;;3.45;;
71790;SDS011;59638;52.126;5.434;2023-08-30T09:16:28;6.18;;;3.53;;
71790;SDS011;59638;52.126;5.434;2023-08-30T09:18:58;4.32;;;3.83;;
71790;SDS011;59638;52.126;5.434;2023-08-30T09:21:35;4.33;;;3.63;;
71790;SDS011;59638;52.126;5.434;2023-08-30T09:24:05;6.20;;;3.85;;
71790;SDS011;59638;52.126;5.434;2023-08-30T09:26:33;4.95;;;3.30;;
71790;SDS011;59638;52.126;5.434;2023-08-30T09:29:05;4.10;;;3.30;;
71790;SDS011;59638;52.126;5.434;2023-08-30T09:31:36;4.25;;;3.85;;
71790;SDS011;59638;52.126;5.434;2023-08-30T09:34:04;3.53;;;3.00;;
71790;SDS011;59638;52.126;5.434;2023-08-30T09:36:34;5.22;;;3.30;;
71790;SDS011;59638;52.126;5.434;2023-08-30T09:39:07;8.93;;;3.45;;
71790;SDS011;59638;52.126;5.434;2023-08-30T09:41:34;5.05;;;2.65;;
71790;SDS011;59638;52.126;5.434;2023-08-30T09:44:06;6.15;;;3.97;;
71790;SDS011;59638;52.126;5.434;2023-08-30T09:46:41;3.50;;;3.13;;
71790;SDS011;59638;52.126;5.434;2023-08-30T09:49:20;3.40;;;3.10;;
71790;SDS011;59638;52.126;5.434;2023-08-30T09:51:48;5.85;;;3.42;;
71790;SDS011;59638;52.126;5.434;2023-08-30T09:54:22;4.18;;;3.78;;
71790;SDS011;59638;52.126;5.434;2023-08-30T09:56:54;4.60;;;4.20;;
71790;SDS011;59638;52.126;5.434;2023-08-30T09:59:22;6.67;;;4.17;;
71790;SDS011;59638;52.126;5.434;2023-08-30T10:01:49;6.65;;;3.72;;
71790;SDS011;59638;52.126;5.434;2023-08-30T10:04:16;5.35;;;3.75;;
71790;SDS011;59638;52.126;5.434;2023-08-30T10:06:45;4.53;;;4.00;;
71790;SDS011;59638;52.126;5.434;2023-08-30T10:09:13;7.43;;;4.55;;
71790;SDS011;59638;52.126;5.434;2023-08-30T10:11:45;4.67;;;4.17;;
71790;SDS011;59638;52.126;5.434;2023-08-30T10:14:11;4.70;;;4.30;;
71790;SDS011;59638;52.126;5.434;2023-08-30T10:19:16;5.53;;;4.63;;
71790;SDS011;59638;52.126;5.434;2023-08-30T10:21:47;5.30;;;4.78;;
71790;SDS011;59638;52.126;5.434;2023-08-30T10:24:19;6.33;;;5.17;;
71790;SDS011;59638;52.126;5.434;2023-08-30T10:26:59;5.13;;;4.63;;
71790;SDS011;59638;52.126;5.434;2023-08-30T10:29:27;7.75;;;5.85;;
71790;SDS011;59638;52.126;5.434;2023-08-30T10:31:55;9.00;;;8.20;;
71790;SDS011;59638;52.126;5.434;2023-08-30T10:34:22;6.85;;;6.25;;
71790;SDS011;59638;52.126;5.434;2023-08-30T10:36:59;6.57;;;5.97;;
71790;SDS011;59638;52.126;5.434;2023-08-30T10:39:36;6.05;;;5.55;;
71790;SDS011;59638;52.126;5.434;2023-08-30T10:42:08;5.75;;;5.20;;
71790;SDS011;59638;52.126;5.434;2023-08-30T10:44:49;4.38;;;3.97;;
71790;SDS011;59638;52.126;5.434;2023-08-30T10:47:38;3.83;;;3.45;;
71790;SDS011;59638;52.126;5.434;2023-08-30T10:50:07;3.07;;;2.80;;
71790;SDS011;59638;52.126;5.434;2023-08-30T10:52:35;5.05;;;2.67;;
71790;SDS011;59638;52.126;5.434;2023-08-30T10:55:05;2.95;;;2.75;;
71790;SDS011;59638;52.126;5.434;2023-08-30T10:57:36;4.50;;;2.85;;
71790;SDS011;59638;52.126;5.434;2023-08-30T11:00:08;2.70;;;2.50;;
71790;SDS011;59638;52.126;5.434;2023-08-30T11:02:36;4.03;;;2.07;;
71790;SDS011;59638;52.126;5.434;2023-08-30T11:05:08;1.58;;;1.00;;
71790;SDS011;59638;52.126;5.434;2023-08-30T11:07:34;2.60;;;1.30;;
71790;SDS011;59638;52.126;5.434;2023-08-30T11:10:04;3.30;;;1.08;;
71790;SDS011;59638;52.126;5.434;2023-08-30T11:12:32;3.63;;;1.38;;
71790;SDS011;59638;52.126;5.434;2023-08-30T11:14:59;2.03;;;1.10;;
71790;SDS011;59638;52.126;5.434;2023-08-30T11:17:26;4.15;;;1.42;;
71790;SDS011;59638;52.126;5.434;2023-08-30T11:20:05;3.45;;;1.10;;
71790;SDS011;59638;52.126;5.434;2023-08-30T11:22:40;4.20;;;1.02;;
71790;SDS011;59638;52.126;5.434;2023-08-30T11:25:09;3.28;;;0.90;;
71790;SDS011;59638;52.126;5.434;2023-08-30T11:27:37;3.13;;;1.40;;
71790;SDS011;59638;52.126;5.434;2023-08-30T11:30:05;4.13;;;0.95;;
71790;SDS011;59638;52.126;5.434;2023-08-30T11:32:36;3.38;;;0.82;;
71790;SDS011;59638;52.126;5.434;2023-08-30T11:35:04;3.45;;;1.00;;
71790;SDS011;59638;52.126;5.434;2023-08-30T11:37:31;2.45;;;0.90;;
71790;SDS011;59638;52.126;5.434;2023-08-30T11:39:58;4.67;;;0.97;;
71790;SDS011;59638;52.126;5.434;2023-08-30T11:42:25;5.90;;;1.00;;
71790;SDS011;59638;52.126;5.434;2023-08-30T11:44:52;4.55;;;0.65;;
71790;SDS011;59638;52.126;5.434;2023-08-30T11:47:20;4.32;;;0.90;;
71790;SDS011;59638;52.126;5.434;2023-08-30T11:49:49;6.30;;;0.88;;
71790;SDS011;59638;52.126;5.434;2023-08-30T11:52:18;2.80;;;0.80;;
71790;SDS011;59638;52.126;5.434;2023-08-30T11:54:47;3.42;;;0.75;;
71790;SDS011;59638;52.126;5.434;2023-08-30T11:57:14;2.78;;;1.00;;
71790;SDS011;59638;52.126;5.434;2023-08-30T11:59:41;4.28;;;0.77;;
71790;SDS011;59638;52.126;5.434;2023-08-30T12:02:11;5.80;;;0.70;;
71790;SDS011;59638;52.126;5.434;2023-08-30T12:04:40;5.97;;;1.07;;
71790;SDS011;59638;52.126;5.434;2023-08-30T12:07:08;5.07;;;0.50;;
71790;SDS011;59638;52.126;5.434;2023-08-30T12:09:37;7.13;;;1.27;;
71790;SDS011;59638;52.126;5.434;2023-08-30T12:12:06;3.95;;;1.00;;
71790;SDS011;59638;52.126;5.434;2023-08-30T12:14:36;5.28;;;1.05;;
71790;SDS011;59638;52.126;5.434;2023-08-30T12:17:04;2.70;;;1.40;;
71790;SDS011;59638;52.126;5.434;2023-08-30T12:19:31;7.45;;;0.70;;
71790;SDS011;59638;52.126;5.434;2023-08-30T12:22:05;4.03;;;0.52;;
71790;SDS011;59638;52.126;5.434;2023-08-30T12:24:46;4.88;;;1.65;;
71790;SDS011;59638;52.126;5.434;2023-08-30T12:27:13;3.67;;;0.88;;
71790;SDS011;59638;52.126;5.434;2023-08-30T12:29:40;4.67;;;0.80;;
71790;SDS011;59638;52.126;5.434;2023-08-30T12:32:07;5.93;;;0.82;;
71790;SDS011;59638;52.126;5.434;2023-08-30T12:34:34;5.97;;;0.85;;
71790;SDS011;59638;52.126;5.434;2023-08-30T12:37:01;4.38;;;0.63;;
71790;SDS011;59638;52.126;5.434;2023-08-30T12:39:30;8.20;;;1.40;;
71790;SDS011;59638;52.126;5.434;2023-08-30T12:41:57;3.23;;;0.63;;
71790;SDS011;59638;52.126;5.434;2023-08-30T12:44:24;4.95;;;0.98;;
71790;SDS011;59638;52.126;5.434;2023-08-30T12:46:50;3.63;;;0.75;;
71790;SDS011;59638;52.126;5.434;2023-08-30T12:49:17;2.05;;;0.55;;
71790;SDS011;59638;52.126;5.434;2023-08-30T12:51:43;3.33;;;0.57;;
71790;SDS011;59638;52.126;5.434;2023-08-30T12:54:10;4.37;;;0.80;;
71790;SDS011;59638;52.126;5.434;2023-08-30T12:56:36;5.72;;;0.80;;
71790;SDS011;59638;52.126;5.434;2023-08-30T12:59:03;5.15;;;0.40;;
71790;SDS011;59638;52.126;5.434;2023-08-30T13:01:29;3.20;;;0.63;;
71790;SDS011;59638;52.126;5.434;2023-08-30T13:03:56;2.63;;;0.50;;
71790;SDS011;59638;52.126;5.434;2023-08-30T13:06:22;3.60;;;0.50;;
71790;SDS011;59638;52.126;5.434;2023-08-30T13:08:49;2.15;;;0.30;;
71790;SDS011;59638;52.126;5.434;2023-08-30T13:11:15;3.63;;;0.40;;
71790;SDS011;59638;52.126;5.434;2023-08-30T13:13:42;7.35;;;1.70;;
71790;SDS011;59638;52.126;5.434;2023-08-30T13:16:09;2.05;;;0.50;;
71790;SDS011;59638;52.126;5.434;2023-08-30T13:18:35;2.60;;;0.67;;
71790;SDS011;59638;52.126;5.434;2023-08-30T13:21:02;1.83;;;0.47;;
71790;SDS011;59638;52.126;5.434;2023-08-30T13:23:30;5.65;;;0.40;;
71790;SDS011;59638;52.126;5.434;2023-08-30T13:25:57;4.28;;;0.43;;
71790;SDS011;59638;52.126;5.434;2023-08-30T13:28:23;3.45;;;0.47;;
71790;SDS011;59638;52.126;5.434;2023-08-30T13:30:50;3.67;;;0.50;;
71790;SDS011;59638;52.126;5.434;2023-08-30T13:33:17;2.17;;;0.40;;
71790;SDS011;59638;52.126;5.434;2023-08-30T13:35:48;2.60;;;0.50;;
71790;SDS011;59638;52.126;5.434;2023-08-30T13:38:16;3.33;;;0.50;;
71790;SDS011;59638;52.126;5.434;2023-08-30T13:40:42;4.15;;;0.85;;
71790;SDS011;59638;52.126;5.434;2023-08-30T13:43:09;3.07;;;0.50;;
71790;SDS011;59638;52.126;5.434;2023-08-30T13:45:36;1.65;;;0.68;;
71790;SDS011;59638;52.126;5.434;2023-08-30T13:48:03;3.55;;;0.60;;
71790;SDS011;59638;52.126;5.434;2023-08-30T13:50:30;3.03;;;0.50;;
71790;SDS011;59638;52.126;5.434;2023-08-30T13:52:58;2.70;;;0.40;;
71790;SDS011;59638;52.126;5.434;2023-08-30T13:55:24;4.17;;;0.30;;
71790;SDS011;59638;52.126;5.434;2023-08-30T13:57:51;3.00;;;0.60;;
71790;SDS011;59638;52.126;5.434;2023-08-30T14:00:17;2.92;;;0.60;;
71790;SDS011;59638;52.126;5.434;2023-08-30T14:02:44;6.03;;;0.85;;
71790;SDS011;59638;52.126;5.434;2023-08-30T14:05:11;5.97;;;0.60;;
71790;SDS011;59638;52.126;5.434;2023-08-30T14:07:37;3.03;;;0.83;;
71790;SDS011;59638;52.126;5.434;2023-08-30T14:10:04;5.45;;;0.65;;
71790;SDS011;59638;52.126;5.434;2023-08-30T14:12:31;1.95;;;0.50;;
71790;SDS011;59638;52.126;5.434;2023-08-30T14:14:59;3.35;;;0.40;;
71790;SDS011;59638;52.126;5.434;2023-08-30T14:17:25;3.78;;;0.52;;
71790;SDS011;59638;52.126;5.434;2023-08-30T14:19:52;2.63;;;0.30;;
71790;SDS011;59638;52.126;5.434;2023-08-30T14:22:18;3.03;;;0.30;;
71790;SDS011;59638;52.126;5.434;2023-08-30T14:24:46;3.55;;;0.25;;
71790;SDS011;59638;52.126;5.434;2023-08-30T14:27:32;1.75;;;0.45;;
71790;SDS011;59638;52.126;5.434;2023-08-30T14:29:58;4.97;;;0.40;;
71790;SDS011;59638;52.126;5.434;2023-08-30T14:32:26;2.40;;;0.40;;
71790;SDS011;59638;52.126;5.434;2023-08-30T14:34:53;1.95;;;0.30;;
71790;SDS011;59638;52.126;5.434;2023-08-30T14:37:19;4.75;;;0.20;;
71790;SDS011;59638;52.126;5.434;2023-08-30T14:39:47;3.17;;;0.52;;
71790;SDS011;59638;52.126;5.434;2023-08-30T14:42:13;3.63;;;0.30;;
71790;SDS011;59638;52.126;5.434;2023-08-30T14:44:40;3.93;;;0.30;;
71790;SDS011;59638;52.126;5.434;2023-08-30T14:47:06;1.80;;;0.60;;
71790;SDS011;59638;52.126;5.434;2023-08-30T14:49:33;3.55;;;0.70;;
71790;SDS011;59638;52.126;5.434;2023-08-30T14:51:59;3.15;;;0.60;;
71790;SDS011;59638;52.126;5.434;2023-08-30T14:54:26;8.65;;;0.50;;
71790;SDS011;59638;52.126;5.434;2023-08-30T14:56:52;2.37;;;0.50;;
71790;SDS011;59638;52.126;5.434;2023-08-30T14:59:19;5.25;;;0.30;;
71790;SDS011;59638;52.126;5.434;2023-08-30T15:01:45;4.93;;;0.40;;
71790;SDS011;59638;52.126;5.434;2023-08-30T15:04:11;2.88;;;0.30;;